createdAt,value
2018-01-13T00:00:59.711Z,0
2018-01-13T00:01:58.945Z,0
2018-01-13T00:02:58.796Z,0
2018-01-13T00:03:59.078Z,0
2018-01-13T00:04:59.464Z,0
2018-01-13T00:06:00.196Z,0
2018-01-13T00:07:00.502Z,0
2018-01-13T00:07:59.508Z,0
2018-01-13T00:08:59.206Z,0
2018-01-13T00:09:59.336Z,0
2018-01-13T00:10:59.784Z,0
2018-01-13T00:11:59.337Z,0
2018-01-13T00:12:59.029Z,0
2018-01-13T00:13:59.556Z,0
2018-01-13T00:15:00.681Z,0
2018-01-13T00:16:01.171Z,0
2018-01-13T00:17:00.332Z,0
2018-01-13T00:18:00.011Z,0
2018-01-13T00:18:59.910Z,0
2018-01-13T00:20:00.879Z,0
2018-01-13T00:21:00.023Z,0
2018-01-13T00:22:00.678Z,0
2018-01-13T00:22:59.928Z,0
2018-01-13T00:24:00.376Z,0
2018-01-13T00:25:00.415Z,0
2018-01-13T00:26:00.038Z,0
2018-01-13T00:27:00.581Z,0
2018-01-13T00:28:00.057Z,0
2018-01-13T00:29:01.017Z,0
2018-01-13T00:30:00.785Z,0
2018-01-13T00:31:00.440Z,0
2018-01-13T00:32:00.937Z,0
2018-01-13T00:33:01.122Z,0
2018-01-13T00:34:00.550Z,0
2018-01-13T00:35:00.803Z,0
2018-01-13T00:36:01.138Z,0
2018-01-13T00:37:01.408Z,0
2018-01-13T00:38:01.039Z,0
2018-01-13T00:39:01.758Z,0
2018-01-13T00:40:02.178Z,0
2018-01-13T00:41:01.777Z,0
2018-01-13T00:42:01.703Z,0
2018-01-13T00:43:01.581Z,0
2018-01-13T00:44:01.719Z,0
2018-01-13T00:45:02.117Z,0
2018-01-13T00:46:01.904Z,0
2018-01-13T00:47:02.127Z,0
2018-01-13T00:48:01.597Z,0
2018-01-13T00:49:01.775Z,0
2018-01-13T00:50:01.893Z,0
2018-01-13T00:51:02.550Z,0
2018-01-13T00:52:02.175Z,0
2018-01-13T00:53:02.688Z,0
2018-01-13T00:54:02.676Z,0
2018-01-13T00:55:02.448Z,0
2018-01-13T00:56:02.943Z,0
2018-01-13T00:57:03.239Z,0
2018-01-13T00:58:02.604Z,0
2018-01-13T00:59:03.167Z,0
2018-01-13T01:01:03.054Z,0
2018-01-13T01:02:03.500Z,0
2018-01-13T01:03:03.679Z,0
2018-01-13T01:04:03.613Z,0
2018-01-13T01:05:04.180Z,0
2018-01-13T01:06:04.496Z,0
2018-01-13T01:07:04.040Z,0
2018-01-13T01:08:04.950Z,0
2018-01-13T01:09:04.291Z,0
2018-01-13T01:10:06.160Z,0
2018-01-13T01:11:04.610Z,0
2018-01-13T01:12:05.742Z,0
2018-01-13T01:13:04.904Z,0
2018-01-13T01:14:04.142Z,0
2018-01-13T01:15:04.210Z,0
2018-01-13T01:16:05.046Z,0
2018-01-13T01:17:04.788Z,0
2018-01-13T01:18:04.907Z,0
2018-01-13T01:19:04.998Z,0
2018-01-13T01:20:04.976Z,0
2018-01-13T01:21:04.712Z,0
2018-01-13T01:22:04.882Z,0
2018-01-13T01:23:04.610Z,0
2018-01-13T01:24:05.007Z,0
2018-01-13T01:25:04.760Z,0
2018-01-13T01:26:05.554Z,0
2018-01-13T01:27:05.685Z,0
2018-01-13T01:28:05.839Z,0
2018-01-13T01:29:05.498Z,0
2018-01-13T01:30:05.634Z,0
2018-01-13T01:31:05.549Z,0
2018-01-13T01:32:06.025Z,0
2018-01-13T01:33:05.114Z,0
2018-01-13T01:34:05.697Z,0
2018-01-13T01:35:05.405Z,0
2018-01-13T01:36:05.340Z,0
2018-01-13T01:37:06.145Z,0
2018-01-13T01:38:05.964Z,0
2018-01-13T01:39:05.653Z,0
2018-01-13T01:40:06.261Z,0
2018-01-13T01:41:06.045Z,0
2018-01-13T01:42:06.453Z,0
2018-01-13T01:43:07.699Z,0
2018-01-13T01:44:06.806Z,0
2018-01-13T01:45:07.002Z,0
2018-01-13T01:46:06.542Z,0
2018-01-13T01:47:06.829Z,0
2018-01-13T01:48:06.989Z,0
2018-01-13T01:49:07.036Z,0
2018-01-13T01:50:07.365Z,0
2018-01-13T01:51:08.083Z,0
2018-01-13T01:52:07.307Z,0
2018-01-13T01:53:07.345Z,0
2018-01-13T01:54:07.624Z,0
2018-01-13T01:55:07.723Z,0
2018-01-13T01:56:08.408Z,0
2018-01-13T01:57:08.237Z,0
2018-01-13T01:58:08.080Z,0
2018-01-13T01:59:08.465Z,0
2018-01-13T02:00:22.766Z,0
2018-01-13T02:01:08.094Z,0
2018-01-13T02:02:08.220Z,0
2018-01-13T02:03:08.984Z,0
2018-01-13T02:04:09.142Z,0
2018-01-13T02:05:10.510Z,0
2018-01-13T02:06:09.971Z,0
2018-01-13T02:07:09.900Z,0
2018-01-13T02:08:10.270Z,0
2018-01-13T02:09:10.731Z,0
2018-01-13T02:10:10.863Z,0
2018-01-13T02:11:10.993Z,0
2018-01-13T02:12:10.674Z,0
2018-01-13T02:13:11.290Z,0
2018-01-13T02:14:10.855Z,0
2018-01-13T02:15:10.677Z,0
2018-01-13T02:16:11.033Z,0
2018-01-13T02:17:12.882Z,0
2018-01-13T02:18:12.041Z,0
2018-01-13T02:19:11.726Z,0
2018-01-13T02:20:12.149Z,0
2018-01-13T02:21:12.172Z,0
2018-01-13T02:22:11.812Z,0
2018-01-13T02:23:12.429Z,0
2018-01-13T02:24:12.578Z,0
2018-01-13T02:25:12.187Z,0
2018-01-13T02:26:12.457Z,0
2018-01-13T02:27:12.785Z,0
2018-01-13T02:28:13.471Z,0
2018-01-13T02:29:13.443Z,0
2018-01-13T02:30:13.634Z,0
2018-01-13T02:31:13.632Z,0
2018-01-13T02:32:13.072Z,0
2018-01-13T02:33:13.365Z,0
2018-01-13T02:34:13.555Z,0
2018-01-13T02:35:14.089Z,0
2018-01-13T02:36:13.865Z,0
2018-01-13T02:37:13.971Z,0
2018-01-13T02:38:14.101Z,0
2018-01-13T02:39:14.472Z,0
2018-01-13T02:40:14.650Z,0
2018-01-13T02:41:14.770Z,0
2018-01-13T02:42:15.166Z,0
2018-01-13T02:43:15.598Z,0
2018-01-13T02:44:15.991Z,0
2018-01-13T02:45:16.000Z,0
2018-01-13T02:46:15.726Z,0
2018-01-13T02:47:15.650Z,0
2018-01-13T02:48:15.704Z,0
2018-01-13T02:49:15.714Z,0
2018-01-13T02:50:15.997Z,0
2018-01-13T02:51:16.399Z,0
2018-01-13T02:52:17.409Z,0
2018-01-13T02:53:17.079Z,0
2018-01-13T02:54:16.731Z,0
2018-01-13T02:55:17.166Z,0
2018-01-13T02:56:17.256Z,0
2018-01-13T02:57:17.168Z,0
2018-01-13T02:58:17.933Z,0
2018-01-13T02:59:17.591Z,0
2018-01-13T03:00:32.854Z,0
2018-01-13T03:01:17.607Z,0
2018-01-13T03:02:17.388Z,0
2018-01-13T03:03:17.851Z,0
2018-01-13T03:04:17.679Z,0
2018-01-13T03:05:18.683Z,0
2018-01-13T03:06:17.725Z,0
2018-01-13T03:07:17.580Z,0
2018-01-13T03:08:18.552Z,0
2018-01-13T03:09:18.897Z,0
2018-01-13T03:10:18.476Z,0
2018-01-13T03:11:18.616Z,0
2018-01-13T03:12:18.463Z,0
2018-01-13T03:13:17.899Z,0
2018-01-13T03:14:18.020Z,0
2018-01-13T03:15:17.990Z,0
2018-01-13T03:16:18.805Z,0
2018-01-13T03:17:18.440Z,0
2018-01-13T03:18:18.175Z,0
2018-01-13T03:19:18.018Z,0
2018-01-13T03:20:18.442Z,0
2018-01-13T03:21:18.702Z,0
2018-01-13T03:22:18.953Z,0
2018-01-13T03:23:18.848Z,0
2018-01-13T03:24:19.116Z,0
2018-01-13T03:25:19.087Z,0
2018-01-13T03:26:18.689Z,0
2018-01-13T03:27:19.264Z,0
2018-01-13T03:28:19.129Z,0
2018-01-13T03:29:18.625Z,0
2018-01-13T03:30:19.374Z,0
2018-01-13T03:31:19.066Z,0
2018-01-13T03:32:19.736Z,0
2018-01-13T03:33:20.017Z,0
2018-01-13T03:34:20.016Z,0
2018-01-13T03:35:19.741Z,0
2018-01-13T03:36:19.505Z,0
2018-01-13T03:37:20.963Z,0
2018-01-13T03:38:20.212Z,0
2018-01-13T03:39:19.672Z,0
2018-01-13T03:40:20.023Z,0
2018-01-13T03:41:20.791Z,0
2018-01-13T03:42:20.181Z,0
2018-01-13T03:43:20.292Z,0
2018-01-13T03:44:20.841Z,0
2018-01-13T03:45:21.227Z,0
2018-01-13T03:46:21.137Z,0
2018-01-13T03:47:21.078Z,0
2018-01-13T03:48:21.684Z,0
2018-01-13T03:49:22.068Z,0
2018-01-13T03:50:22.314Z,0
2018-01-13T03:51:21.428Z,0
2018-01-13T03:52:21.705Z,0
2018-01-13T03:53:21.671Z,0
2018-01-13T03:54:22.175Z,0
2018-01-13T03:55:22.379Z,0
2018-01-13T03:56:21.470Z,0
2018-01-13T03:57:21.878Z,0
2018-01-13T03:58:22.377Z,0
2018-01-13T03:59:22.362Z,0
2018-01-13T04:00:28.078Z,0
2018-01-13T04:01:27.231Z,0
2018-01-13T04:02:27.970Z,0
2018-01-13T04:03:27.327Z,0
2018-01-13T04:04:27.715Z,0
2018-01-13T04:05:28.175Z,0
2018-01-13T04:06:28.555Z,0
2018-01-13T04:07:27.422Z,0
2018-01-13T04:08:28.364Z,0
2018-01-13T04:09:27.573Z,0
2018-01-13T04:10:28.692Z,0
2018-01-13T04:11:28.345Z,0
2018-01-13T04:12:28.360Z,0
2018-01-13T04:13:28.095Z,0
2018-01-13T04:14:28.339Z,0
2018-01-13T04:15:28.902Z,0
2018-01-13T04:16:30.866Z,0
2018-01-13T04:17:30.220Z,0
2018-01-13T04:18:29.033Z,0
2018-01-13T04:19:30.089Z,0
2018-01-13T04:20:30.135Z,0
2018-01-13T04:21:29.237Z,0
2018-01-13T04:22:29.872Z,0
2018-01-13T04:23:29.365Z,0
2018-01-13T04:24:30.151Z,0
2018-01-13T04:25:30.150Z,0
2018-01-13T04:26:29.266Z,0
2018-01-13T04:27:29.401Z,0
2018-01-13T04:28:29.796Z,0
2018-01-13T04:29:29.989Z,0
2018-01-13T04:30:30.434Z,0
2018-01-13T04:31:31.269Z,0
2018-01-13T04:32:30.212Z,0
2018-01-13T04:33:29.636Z,0
2018-01-13T04:34:30.286Z,0
2018-01-13T04:35:30.770Z,0
2018-01-13T04:36:30.990Z,0
2018-01-13T04:37:31.152Z,0
2018-01-13T04:38:30.796Z,0
2018-01-13T04:39:31.031Z,0
2018-01-13T04:40:32.703Z,0
2018-01-13T04:41:31.644Z,0
2018-01-13T04:42:32.714Z,0
2018-01-13T04:43:32.811Z,0
2018-01-13T04:44:32.239Z,0
2018-01-13T04:45:32.030Z,0
2018-01-13T04:46:32.476Z,0
2018-01-13T04:47:31.795Z,0
2018-01-13T04:48:32.436Z,0
2018-01-13T04:49:31.994Z,0
2018-01-13T04:50:32.312Z,0
2018-01-13T04:51:32.423Z,0
2018-01-13T04:52:32.412Z,0
2018-01-13T04:53:32.295Z,0
2018-01-13T04:54:32.931Z,0
2018-01-13T04:55:33.595Z,0
2018-01-13T04:56:33.315Z,0
2018-01-13T04:57:33.314Z,0
2018-01-13T04:58:33.435Z,0
2018-01-13T04:59:33.607Z,0
2018-01-13T05:00:34.050Z,0
2018-01-13T05:01:33.657Z,0
2018-01-13T05:02:33.827Z,0
2018-01-13T05:03:34.121Z,0
2018-01-13T05:04:33.588Z,0
2018-01-13T05:05:34.505Z,0
2018-01-13T05:06:34.525Z,0
2018-01-13T05:07:34.854Z,0
2018-01-13T05:08:35.668Z,0
2018-01-13T05:09:35.067Z,0
2018-01-13T05:10:34.447Z,0
2018-01-13T05:11:35.067Z,0
2018-01-13T05:12:34.680Z,0
2018-01-13T05:13:35.640Z,0
2018-01-13T05:14:35.477Z,0
2018-01-13T05:15:35.705Z,0
2018-01-13T05:16:36.878Z,0
2018-01-13T05:17:35.070Z,0
2018-01-13T05:18:36.133Z,0
2018-01-13T05:19:36.769Z,0
2018-01-13T05:20:37.060Z,0
2018-01-13T05:21:36.708Z,0
2018-01-13T05:22:36.205Z,0
2018-01-13T05:23:36.927Z,0
2018-01-13T05:24:36.025Z,0
2018-01-13T05:25:35.978Z,0
2018-01-13T05:26:36.603Z,0
2018-01-13T05:27:35.462Z,0
2018-01-13T05:28:36.127Z,0
2018-01-13T05:29:36.640Z,0
2018-01-13T05:30:35.856Z,0
2018-01-13T05:31:36.691Z,0
2018-01-13T05:32:36.968Z,0
2018-01-13T05:33:36.497Z,0
2018-01-13T05:34:36.332Z,0
2018-01-13T05:35:36.901Z,0
2018-01-13T05:36:36.971Z,0
2018-01-13T05:37:37.581Z,0
2018-01-13T05:38:37.254Z,0
2018-01-13T05:39:37.607Z,0
2018-01-13T05:40:38.203Z,0
2018-01-13T05:41:38.353Z,0
2018-01-13T05:42:38.536Z,0
2018-01-13T05:43:38.465Z,0
2018-01-13T05:44:38.773Z,0
2018-01-13T05:45:37.712Z,0
2018-01-13T05:46:38.778Z,0
2018-01-13T05:47:38.658Z,0
2018-01-13T05:48:38.666Z,0
2018-01-13T05:49:39.148Z,0
2018-01-13T05:50:38.680Z,0
2018-01-13T05:51:38.553Z,0
2018-01-13T05:52:38.583Z,0
2018-01-13T05:53:39.093Z,0
2018-01-13T05:54:39.668Z,0
2018-01-13T05:55:38.852Z,0
2018-01-13T05:56:38.960Z,0
2018-01-13T05:57:39.699Z,0
2018-01-13T05:58:39.467Z,0
2018-01-13T05:59:38.116Z,0
2018-01-13T06:00:38.174Z,0
2018-01-13T06:01:39.233Z,0
2018-01-13T06:02:38.449Z,0
2018-01-13T06:03:38.802Z,0
2018-01-13T06:04:38.877Z,0
2018-01-13T06:05:39.743Z,0
2018-01-13T06:06:39.164Z,0
2018-01-13T06:07:39.384Z,0
2018-01-13T06:08:39.936Z,0
2018-01-13T06:09:39.162Z,0
2018-01-13T06:10:40.207Z,0
2018-01-13T06:11:39.966Z,0
2018-01-13T06:12:39.466Z,0
2018-01-13T06:13:40.192Z,0
2018-01-13T06:14:39.657Z,0
2018-01-13T06:15:40.360Z,0
2018-01-13T06:16:40.365Z,0
2018-01-13T06:17:40.657Z,0
2018-01-13T06:18:41.365Z,0
2018-01-13T06:19:41.772Z,0
2018-01-13T06:20:42.758Z,0
2018-01-13T06:21:40.841Z,0
2018-01-13T06:22:41.159Z,0
2018-01-13T06:23:42.171Z,0
2018-01-13T06:24:41.475Z,0
2018-01-13T06:25:42.563Z,0
2018-01-13T06:26:42.033Z,0
2018-01-13T06:27:43.631Z,0
2018-01-13T06:28:42.542Z,0
2018-01-13T06:29:43.528Z,0
2018-01-13T06:30:43.832Z,0
2018-01-13T06:31:43.237Z,0
2018-01-13T06:32:43.144Z,0
2018-01-13T06:33:43.883Z,0
2018-01-13T06:34:43.253Z,0
2018-01-13T06:35:43.079Z,0
2018-01-13T06:36:43.277Z,0
2018-01-13T06:37:43.963Z,0
2018-01-13T06:38:43.590Z,0
2018-01-13T06:39:45.392Z,0
2018-01-13T06:40:44.050Z,0
2018-01-13T06:41:44.246Z,0
2018-01-13T06:42:57.985Z,0
2018-01-13T06:43:44.005Z,0
2018-01-13T06:44:43.850Z,0
2018-01-13T06:45:43.852Z,0
2018-01-13T06:46:44.656Z,0
2018-01-13T06:47:44.382Z,0
2018-01-13T06:48:44.834Z,0
2018-01-13T06:49:44.590Z,0
2018-01-13T06:50:44.544Z,0
2018-01-13T06:51:47.083Z,0
2018-01-13T06:52:44.727Z,0
2018-01-13T06:53:45.090Z,0
2018-01-13T06:54:45.612Z,0
2018-01-13T06:55:45.766Z,0
2018-01-13T06:56:45.397Z,0
2018-01-13T06:57:45.367Z,0
2018-01-13T06:58:45.944Z,0
2018-01-13T06:59:45.961Z,0
2018-01-13T07:00:45.350Z,0
2018-01-13T07:01:45.793Z,0
2018-01-13T07:02:45.664Z,0
2018-01-13T07:03:46.554Z,0
2018-01-13T07:04:46.078Z,0
2018-01-13T07:05:46.818Z,0
2018-01-13T07:06:47.055Z,0
2018-01-13T07:07:47.478Z,0
2018-01-13T07:08:46.578Z,0
2018-01-13T07:09:47.569Z,0
2018-01-13T07:10:47.371Z,0
2018-01-13T07:11:47.555Z,0
2018-01-13T07:12:47.947Z,0
2018-01-13T07:13:47.935Z,0
2018-01-13T07:14:48.670Z,0
2018-01-13T07:15:48.440Z,0
2018-01-13T07:16:48.176Z,0
2018-01-13T07:17:48.255Z,0
2018-01-13T07:18:48.196Z,0
2018-01-13T07:19:48.709Z,0
2018-01-13T07:20:48.379Z,0
2018-01-13T07:21:49.190Z,0
2018-01-13T07:22:49.178Z,0
2018-01-13T07:23:49.804Z,0
2018-01-13T07:24:49.438Z,0
2018-01-13T07:25:49.143Z,5
2018-01-13T07:26:49.179Z,5
2018-01-13T07:27:49.377Z,5
2018-01-13T07:28:50.382Z,5
2018-01-13T07:29:49.057Z,5
2018-01-13T07:30:50.290Z,5
2018-01-13T07:31:49.638Z,5
2018-01-13T07:33:05.450Z,5
2018-01-13T07:33:50.843Z,5
2018-01-13T07:34:50.456Z,5
2018-01-13T07:35:50.841Z,5
2018-01-13T07:36:50.526Z,5
2018-01-13T07:37:50.260Z,5
2018-01-13T07:38:50.497Z,5
2018-01-13T07:39:50.510Z,5
2018-01-13T07:40:51.065Z,5
2018-01-13T07:41:50.924Z,5
2018-01-13T07:42:51.654Z,10
2018-01-13T07:43:51.367Z,10
2018-01-13T07:44:51.941Z,10
2018-01-13T07:45:51.818Z,10
2018-01-13T07:46:51.922Z,10
2018-01-13T07:47:52.045Z,10
2018-01-13T07:48:51.995Z,10
2018-01-13T07:49:52.364Z,10
2018-01-13T07:50:51.951Z,10
2018-01-13T07:51:52.550Z,15
2018-01-13T07:52:52.218Z,15
2018-01-13T07:53:53.025Z,15
2018-01-13T07:54:52.851Z,15
2018-01-13T07:55:53.693Z,15
2018-01-13T07:56:53.322Z,15
2018-01-13T07:57:52.554Z,15
2018-01-13T07:58:52.885Z,15
2018-01-13T07:59:53.573Z,15
2018-01-13T08:01:07.650Z,15
2018-01-13T08:01:53.868Z,15
2018-01-13T08:02:53.247Z,15
2018-01-13T08:03:53.355Z,20
2018-01-13T08:04:54.807Z,20
2018-01-13T08:05:53.842Z,20
2018-01-13T08:06:53.233Z,20
2018-01-13T08:07:53.226Z,15
2018-01-13T08:08:53.952Z,15
2018-01-13T08:09:52.929Z,15
2018-01-13T08:10:53.445Z,15
2018-01-13T08:11:55.293Z,20
2018-01-13T08:12:55.622Z,20
2018-01-13T08:13:55.204Z,20
2018-01-13T08:14:55.363Z,20
2018-01-13T08:15:54.426Z,25
2018-01-13T08:16:56.011Z,25
2018-01-13T08:17:55.308Z,25
2018-01-13T08:18:55.239Z,25
2018-01-13T08:19:55.234Z,25
2018-01-13T08:20:55.102Z,25
2018-01-13T08:21:53.436Z,30
2018-01-13T08:22:53.385Z,30
2018-01-13T08:23:53.644Z,25
2018-01-13T08:24:53.878Z,25
2018-01-13T08:25:53.854Z,25
2018-01-13T08:26:54.588Z,25
2018-01-13T08:27:54.040Z,25
2018-01-13T08:28:55.663Z,25
2018-01-13T08:29:54.610Z,25
2018-01-13T08:30:54.716Z,30
2018-01-13T08:31:54.425Z,30
2018-01-13T08:32:55.154Z,30
2018-01-13T08:33:57.156Z,30
2018-01-13T08:34:58.089Z,35
2018-01-13T08:35:56.723Z,35
2018-01-13T08:36:56.552Z,35
2018-01-13T08:37:57.609Z,40
2018-01-13T08:38:57.346Z,35
2018-01-13T08:39:56.886Z,30
2018-01-13T08:40:56.106Z,35
2018-01-13T08:41:57.030Z,40
2018-01-13T08:42:57.828Z,40
2018-01-13T08:43:56.062Z,40
2018-01-13T08:44:56.571Z,35
2018-01-13T08:45:55.862Z,40
2018-01-13T08:46:56.949Z,35
2018-01-13T08:47:57.405Z,35
2018-01-13T08:48:56.995Z,40
2018-01-13T08:49:55.973Z,40
2018-01-13T08:50:56.532Z,40
2018-01-13T08:51:58.592Z,35
2018-01-13T08:52:59.514Z,40
2018-01-13T08:53:57.096Z,35
2018-01-13T08:54:57.396Z,40
2018-01-13T08:55:56.561Z,40
2018-01-13T08:56:56.639Z,35
2018-01-13T08:57:59.164Z,40
2018-01-13T08:58:57.815Z,35
2018-01-13T08:59:57.782Z,40
2018-01-13T09:00:57.800Z,35
2018-01-13T09:01:58.287Z,35
2018-01-13T09:02:58.207Z,40
2018-01-13T09:03:58.469Z,40
2018-01-13T09:04:58.227Z,45
2018-01-13T09:05:58.856Z,40
2018-01-13T09:06:57.824Z,40
2018-01-13T09:08:00.219Z,40
2018-01-13T09:08:58.409Z,45
2018-01-13T09:09:59.301Z,45
2018-01-13T09:11:01.492Z,45
2018-01-13T09:11:59.046Z,45
2018-01-13T09:12:59.562Z,45
2018-01-13T09:13:58.815Z,45
2018-01-13T09:14:59.154Z,45
2018-01-13T09:15:59.127Z,45
2018-01-13T09:16:59.539Z,45
2018-01-13T09:17:59.439Z,45
2018-01-13T09:18:59.392Z,45
2018-01-13T09:20:00.112Z,45
2018-01-13T09:20:59.168Z,50
2018-01-13T09:22:00.771Z,45
2018-01-13T09:23:00.900Z,50
2018-01-13T09:24:00.562Z,50
2018-01-13T09:24:59.560Z,45
2018-01-13T09:25:59.206Z,45
2018-01-13T09:26:59.912Z,50
2018-01-13T09:28:00.191Z,50
2018-01-13T09:29:00.183Z,50
2018-01-13T09:30:00.789Z,60
2018-01-13T09:31:00.075Z,65
2018-01-13T09:32:00.194Z,70
2018-01-13T09:33:00.549Z,75
2018-01-13T09:34:00.258Z,80
2018-01-13T09:35:00.217Z,80
2018-01-13T09:36:00.314Z,85
2018-01-13T09:36:59.929Z,90
2018-01-13T09:38:00.678Z,90
2018-01-13T09:39:00.285Z,90
2018-01-13T09:40:00.605Z,90
2018-01-13T09:40:59.973Z,90
2018-01-13T09:42:01.328Z,85
2018-01-13T09:43:00.128Z,95
2018-01-13T09:44:01.079Z,95
2018-01-13T09:45:00.676Z,95
2018-01-13T09:46:00.828Z,95
2018-01-13T09:47:00.971Z,100
2018-01-13T09:48:01.235Z,100
2018-01-13T09:49:01.619Z,100
2018-01-13T09:50:01.432Z,100
2018-01-13T09:51:01.581Z,100
2018-01-13T09:52:01.318Z,100
2018-01-13T09:53:02.174Z,100
2018-01-13T09:54:01.650Z,105
2018-01-13T09:55:01.460Z,110
2018-01-13T09:56:03.778Z,110
2018-01-13T09:57:02.562Z,115
2018-01-13T09:58:03.637Z,120
2018-01-13T09:59:02.024Z,125
2018-01-13T10:01:02.589Z,120
2018-01-13T10:02:03.050Z,120
2018-01-13T10:03:02.059Z,125
2018-01-13T10:04:02.630Z,130
2018-01-13T10:05:02.291Z,135
2018-01-13T10:06:03.376Z,140
2018-01-13T10:07:02.742Z,140
2018-01-13T10:08:03.147Z,145
2018-01-13T10:09:03.256Z,155
2018-01-13T10:10:03.730Z,160
2018-01-13T10:11:03.189Z,160
2018-01-13T10:12:05.142Z,160
2018-01-13T10:13:05.460Z,165
2018-01-13T10:14:04.314Z,165
2018-01-13T10:15:03.858Z,170
2018-01-13T10:16:04.128Z,170
2018-01-13T10:17:03.251Z,175
2018-01-13T10:18:04.587Z,170
2018-01-13T10:19:03.754Z,160
2018-01-13T10:20:03.020Z,165
2018-01-13T10:21:03.721Z,160
2018-01-13T10:22:03.517Z,160
2018-01-13T10:23:03.860Z,165
2018-01-13T10:24:03.351Z,165
2018-01-13T10:25:03.746Z,165
2018-01-13T10:26:03.725Z,180
2018-01-13T10:27:03.353Z,195
2018-01-13T10:28:03.036Z,195
2018-01-13T10:29:05.288Z,200
2018-01-13T10:30:04.350Z,210
2018-01-13T10:31:04.744Z,220
2018-01-13T10:32:04.503Z,230
2018-01-13T10:33:06.473Z,230
2018-01-13T10:34:04.732Z,240
2018-01-13T10:35:04.557Z,245
2018-01-13T10:36:06.204Z,250
2018-01-13T10:37:06.310Z,250
2018-01-13T10:38:04.421Z,275
2018-01-13T10:39:04.549Z,310
2018-01-13T10:40:03.895Z,335
2018-01-13T10:41:04.133Z,280
2018-01-13T10:42:03.857Z,195
2018-01-13T10:43:04.725Z,165
2018-01-13T10:44:04.630Z,135
2018-01-13T10:45:05.297Z,150
2018-01-13T10:46:04.836Z,130
2018-01-13T10:47:04.712Z,125
2018-01-13T10:48:04.521Z,120
2018-01-13T10:49:05.601Z,125
2018-01-13T10:50:05.418Z,150
2018-01-13T10:51:06.227Z,160
2018-01-13T10:52:07.525Z,160
2018-01-13T10:53:06.461Z,150
2018-01-13T10:54:04.886Z,125
2018-01-13T10:55:05.421Z,100
2018-01-13T10:56:06.023Z,90
2018-01-13T10:57:05.888Z,100
2018-01-13T10:58:05.584Z,105
2018-01-13T10:59:05.442Z,90
2018-01-13T11:00:20.560Z,100
2018-01-13T11:01:05.705Z,100
2018-01-13T11:02:05.986Z,100
2018-01-13T11:03:06.259Z,105
2018-01-13T11:04:06.513Z,100
2018-01-13T11:05:06.794Z,95
2018-01-13T11:06:07.078Z,85
2018-01-13T11:07:06.148Z,80
2018-01-13T11:08:06.423Z,75
2018-01-13T11:50:53.246Z,65
2018-01-13T11:51:03.640Z,60
2018-01-13T11:52:40.671Z,60
2018-01-13T11:53:04.216Z,60
2018-01-13T11:54:04.602Z,55
2018-01-13T11:55:03.833Z,55
2018-01-13T11:56:04.092Z,55
2018-01-13T11:57:03.938Z,50
2018-01-13T11:58:04.033Z,50
2018-01-13T11:59:04.402Z,55
2018-01-13T12:00:19.023Z,55
2018-01-13T12:01:03.681Z,50
2018-01-13T12:02:04.369Z,50
2018-01-13T12:03:04.323Z,50
2018-01-13T12:04:03.700Z,45
2018-01-13T12:05:06.014Z,45
2018-01-13T12:06:04.017Z,45
2018-01-13T12:07:04.942Z,45
2018-01-13T12:08:04.338Z,45
2018-01-13T12:09:04.820Z,45
2018-01-13T12:10:05.187Z,50
2018-01-13T12:11:05.190Z,50
2018-01-13T12:12:05.245Z,45
2018-01-13T12:13:05.032Z,45
2018-01-13T12:14:04.390Z,45
2018-01-13T12:15:04.893Z,50
2018-01-13T12:16:05.565Z,50
2018-01-13T12:17:05.410Z,50
2018-01-13T12:18:05.413Z,45
2018-01-13T12:19:07.356Z,45
2018-01-13T12:20:06.442Z,40
2018-01-13T12:21:06.521Z,40
2018-01-13T12:22:06.563Z,45
2018-01-13T12:23:06.475Z,50
2018-01-13T12:24:06.378Z,45
2018-01-13T12:25:06.784Z,50
2018-01-13T12:26:06.971Z,45
2018-01-13T12:27:07.080Z,45
2018-01-13T12:28:06.495Z,50
2018-01-13T12:29:06.624Z,50
2018-01-13T12:30:07.024Z,50
2018-01-13T12:31:06.398Z,55
2018-01-13T12:32:06.187Z,55
2018-01-13T12:33:08.209Z,55
2018-01-13T12:34:07.708Z,55
2018-01-13T12:35:08.620Z,55
2018-01-13T12:36:07.981Z,50
2018-01-13T12:37:07.012Z,45
2018-01-13T12:38:06.671Z,45
2018-01-13T12:39:07.489Z,45
2018-01-13T12:40:07.173Z,45
2018-01-13T12:41:07.341Z,45
2018-01-13T12:42:07.738Z,45
2018-01-13T12:43:08.099Z,45
2018-01-13T12:44:07.789Z,45
2018-01-13T12:45:07.641Z,45
2018-01-13T12:46:08.201Z,45
2018-01-13T12:47:08.839Z,45
2018-01-13T12:48:07.966Z,45
2018-01-13T12:49:08.567Z,45
2018-01-13T12:50:08.634Z,45
2018-01-13T12:51:08.980Z,45
2018-01-13T12:52:09.124Z,50
2018-01-13T12:53:09.095Z,50
2018-01-13T12:54:08.681Z,50
2018-01-13T12:55:08.544Z,45
2018-01-13T12:56:08.618Z,50
2018-01-13T12:57:09.313Z,45
2018-01-13T12:58:08.722Z,45
2018-01-13T12:59:09.178Z,45
2018-01-13T13:00:24.138Z,40
2018-01-13T13:01:09.510Z,40
2018-01-13T13:02:09.532Z,40
2018-01-13T13:03:10.325Z,40
2018-01-13T13:04:09.498Z,40
2018-01-13T13:05:10.146Z,45
2018-01-13T13:06:09.802Z,40
2018-01-13T13:07:10.123Z,40
2018-01-13T13:08:10.585Z,40
2018-01-13T13:09:10.836Z,40
2018-01-13T13:10:10.836Z,40
2018-01-13T13:11:10.820Z,35
2018-01-13T13:12:11.201Z,35
2018-01-13T13:13:11.072Z,35
2018-01-13T13:14:10.849Z,35
2018-01-13T13:15:10.731Z,35
2018-01-13T13:16:11.421Z,30
2018-01-13T13:17:11.643Z,30
2018-01-13T13:18:11.877Z,30
2018-01-13T13:19:11.696Z,30
2018-01-13T13:20:11.832Z,30
2018-01-13T13:21:10.846Z,30
2018-01-13T13:22:12.590Z,30
2018-01-13T13:23:12.913Z,30
2018-01-13T13:24:13.044Z,30
2018-01-13T13:25:11.941Z,30
2018-01-13T13:26:12.066Z,30
2018-01-13T13:27:12.226Z,30
2018-01-13T13:28:12.026Z,35
2018-01-13T13:29:12.100Z,35
2018-01-13T13:30:12.755Z,35
2018-01-13T13:31:12.180Z,30
2018-01-13T13:32:12.759Z,30
2018-01-13T13:33:12.308Z,30
2018-01-13T13:34:12.162Z,35
2018-01-13T13:35:13.947Z,35
2018-01-13T13:36:13.230Z,35
2018-01-13T13:37:14.719Z,35
2018-01-13T13:38:13.634Z,35
2018-01-13T13:39:12.541Z,35
2018-01-13T13:40:12.705Z,40
2018-01-13T13:41:11.617Z,40
2018-01-13T13:42:12.262Z,40
2018-01-13T13:43:11.815Z,35
2018-01-13T13:44:12.003Z,40
2018-01-13T13:45:12.442Z,40
2018-01-13T13:46:12.981Z,35
2018-01-13T13:47:13.411Z,40
2018-01-13T13:48:12.324Z,40
2018-01-13T13:49:13.072Z,40
2018-01-13T13:50:13.626Z,35
2018-01-13T13:51:13.607Z,40
2018-01-13T13:52:14.030Z,40
2018-01-13T13:53:13.782Z,40
2018-01-13T13:54:13.900Z,45
2018-01-13T13:55:15.273Z,40
2018-01-13T13:56:13.866Z,40
2018-01-13T13:57:14.312Z,40
2018-01-13T13:58:14.438Z,40
2018-01-13T13:59:13.508Z,40
2018-01-13T14:00:28.564Z,40
2018-01-13T14:01:38.820Z,40
2018-01-13T14:02:38.200Z,35
2018-01-13T14:03:38.462Z,35
2018-01-13T14:04:38.248Z,35
2018-01-13T14:05:38.765Z,35
2018-01-13T14:06:38.974Z,35
2018-01-13T14:07:40.224Z,30
2018-01-13T14:08:39.855Z,35
2018-01-13T14:09:40.074Z,30
2018-01-13T14:10:39.873Z,30
2018-01-13T14:11:39.656Z,30
2018-01-13T14:12:42.290Z,30
2018-01-13T14:13:43.351Z,30
2018-01-13T14:14:41.387Z,30
2018-01-13T14:15:42.181Z,25
2018-01-13T14:16:41.669Z,25
2018-01-13T14:17:41.732Z,25
2018-01-13T14:18:40.922Z,25
2018-01-13T14:19:42.137Z,25
2018-01-13T14:20:41.310Z,25
2018-01-13T14:21:41.025Z,25
2018-01-13T14:22:40.925Z,25
2018-01-13T14:23:42.330Z,25
2018-01-13T14:24:41.444Z,20
2018-01-13T14:25:41.623Z,20
2018-01-13T14:26:41.599Z,20
2018-01-13T14:27:41.984Z,20
2018-01-13T14:28:41.985Z,20
2018-01-13T14:29:41.590Z,20
2018-01-13T14:30:40.941Z,20
2018-01-13T14:31:41.781Z,20
2018-01-13T14:32:42.353Z,20
2018-01-13T14:33:42.682Z,20
2018-01-13T14:34:43.863Z,15
2018-01-13T14:35:42.653Z,15
2018-01-13T14:36:41.933Z,15
2018-01-13T14:37:43.044Z,15
2018-01-13T14:38:42.912Z,15
2018-01-13T14:39:41.824Z,15
2018-01-13T14:40:41.764Z,15
2018-01-13T14:41:42.418Z,15
2018-01-13T14:42:41.709Z,15
2018-01-13T14:43:42.161Z,15
2018-01-13T14:44:42.961Z,15
2018-01-13T14:45:43.769Z,10
2018-01-13T14:46:44.795Z,10
2018-01-13T14:47:43.174Z,10
2018-01-13T14:48:42.523Z,10
2018-01-13T14:49:44.340Z,10
2018-01-13T14:50:44.334Z,10
2018-01-13T14:51:45.968Z,10
2018-01-13T14:52:46.052Z,10
2018-01-13T14:53:45.637Z,10
2018-01-13T14:54:42.794Z,10
2018-01-13T14:55:43.902Z,10
2018-01-13T14:56:44.983Z,5
2018-01-13T14:57:45.219Z,5
2018-01-13T14:58:43.587Z,5
2018-01-13T14:59:43.304Z,5
2018-01-13T15:00:43.263Z,5
2018-01-13T15:01:42.722Z,5
2018-01-13T15:02:44.868Z,5
2018-01-13T15:03:44.337Z,5
2018-01-13T15:04:43.849Z,5
2018-01-13T15:05:44.270Z,5
2018-01-13T15:06:44.132Z,5
2018-01-13T15:07:44.000Z,5
2018-01-13T15:08:44.706Z,5
2018-01-13T15:09:44.928Z,5
2018-01-13T15:10:44.850Z,5
2018-01-13T15:11:45.650Z,0
2018-01-13T15:12:45.442Z,0
2018-01-13T15:13:45.880Z,0
2018-01-13T15:14:46.396Z,0
2018-01-13T15:15:45.643Z,0